sensor_id;sensor_type;location;lat;lon;timestamp;pressure;altitude;pressure_sealevel;temperature;humidity
48404;BME280;34202;52.536;6.042;2023-07-13T00:01:36;101355.76;;;17.01;77.49
48404;BME280;34202;52.536;6.042;2023-07-13T00:06:38;101365.09;;;17.00;77.81
48404;BME280;34202;52.536;6.042;2023-07-13T00:11:40;101367.38;;;16.99;77.87
48404;BME280;34202;52.536;6.042;2023-07-13T00:16:40;101367.94;;;16.96;78.10
48404;BME280;34202;52.536;6.042;2023-07-13T00:21:43;101368.67;;;16.94;78.54
48404;BME280;34202;52.536;6.042;2023-07-13T00:26:44;101368.53;;;16.91;78.92
48404;BME280;34202;52.536;6.042;2023-07-13T00:31:45;101370.49;;;16.89;79.21
48404;BME280;34202;52.536;6.042;2023-07-13T00:36:46;101381.77;;;16.85;79.30
48404;BME280;34202;52.536;6.042;2023-07-13T00:41:46;101376.71;;;16.80;79.45
48404;BME280;34202;52.536;6.042;2023-07-13T00:46:47;101375.52;;;16.74;79.65
48404;BME280;34202;52.536;6.042;2023-07-13T00:52:02;101378.40;;;16.69;79.81
48404;BME280;34202;52.536;6.042;2023-07-13T00:57:14;101382.48;;;16.66;79.97
48404;BME280;34202;52.536;6.042;2023-07-13T01:02:15;101380.93;;;16.62;80.21
48404;BME280;34202;52.536;6.042;2023-07-13T01:07:17;101379.02;;;16.60;80.43
48404;BME280;34202;52.536;6.042;2023-07-13T01:12:18;101388.55;;;16.56;80.67
48404;BME280;34202;52.536;6.042;2023-07-13T01:17:19;101390.17;;;16.50;80.95
48404;BME280;34202;52.536;6.042;2023-07-13T01:22:20;101386.17;;;16.45;81.17
48404;BME280;34202;52.536;6.042;2023-07-13T01:27:25;101386.40;;;16.41;81.37
48404;BME280;34202;52.536;6.042;2023-07-13T01:32:26;101384.34;;;16.36;81.64
48404;BME280;34202;52.536;6.042;2023-07-13T01:37:26;101384.54;;;16.32;81.87
48404;BME280;34202;52.536;6.042;2023-07-13T01:42:28;101385.26;;;16.30;82.21
48404;BME280;34202;52.536;6.042;2023-07-13T01:47:28;101386.67;;;16.29;82.49
48404;BME280;34202;52.536;6.042;2023-07-13T01:52:30;101384.41;;;16.28;82.86
48404;BME280;34202;52.536;6.042;2023-07-13T01:57:31;101381.61;;;16.26;83.38
48404;BME280;34202;52.536;6.042;2023-07-13T02:02:31;101384.27;;;16.22;83.88
48404;BME280;34202;52.536;6.042;2023-07-13T02:07:32;101391.86;;;16.18;84.15
48404;BME280;34202;52.536;6.042;2023-07-13T02:12:33;101398.37;;;16.15;84.45
48404;BME280;34202;52.536;6.042;2023-07-13T02:17:35;101392.94;;;16.13;84.64
48404;BME280;34202;52.536;6.042;2023-07-13T02:22:36;101391.55;;;16.11;84.72
48404;BME280;34202;52.536;6.042;2023-07-13T02:27:36;101387.71;;;16.08;84.92
48404;BME280;34202;52.536;6.042;2023-07-13T02:32:36;101390.54;;;16.06;85.18
48404;BME280;34202;52.536;6.042;2023-07-13T02:37:37;101393.55;;;16.03;85.40
48404;BME280;34202;52.536;6.042;2023-07-13T02:42:38;101390.77;;;16.00;85.49
48404;BME280;34202;52.536;6.042;2023-07-13T02:47:40;101388.14;;;15.98;85.71
48404;BME280;34202;52.536;6.042;2023-07-13T02:52:41;101393.07;;;15.95;85.75
48404;BME280;34202;52.536;6.042;2023-07-13T02:57:41;101394.84;;;15.93;85.99
48404;BME280;34202;52.536;6.042;2023-07-13T03:02:41;101398.02;;;15.89;86.13
48404;BME280;34202;52.536;6.042;2023-07-13T03:07:42;101398.58;;;15.86;86.24
48404;BME280;34202;52.536;6.042;2023-07-13T03:12:43;101399.65;;;15.83;86.49
48404;BME280;34202;52.536;6.042;2023-07-13T03:17:44;101398.44;;;15.79;86.70
48404;BME280;34202;52.536;6.042;2023-07-13T03:22:44;101406.88;;;15.74;86.98
48404;BME280;34202;52.536;6.042;2023-07-13T03:27:45;101410.73;;;15.70;87.12
48404;BME280;34202;52.536;6.042;2023-07-13T03:32:45;101415.33;;;15.66;87.40
48404;BME280;34202;52.536;6.042;2023-07-13T03:37:45;101421.67;;;15.61;87.90
48404;BME280;34202;52.536;6.042;2023-07-13T03:42:46;101420.11;;;15.58;88.05
48404;BME280;34202;52.536;6.042;2023-07-13T03:47:47;101420.98;;;15.55;88.33
48404;BME280;34202;52.536;6.042;2023-07-13T03:52:47;101431.52;;;15.55;88.76
48404;BME280;34202;52.536;6.042;2023-07-13T03:57:47;101433.98;;;15.53;89.02
48404;BME280;34202;52.536;6.042;2023-07-13T04:02:48;101435.21;;;15.52;89.23
48404;BME280;34202;52.536;6.042;2023-07-13T04:07:49;101434.52;;;15.50;89.41
48404;BME280;34202;52.536;6.042;2023-07-13T04:12:50;101438.73;;;15.47;89.64
48404;BME280;34202;52.536;6.042;2023-07-13T04:17:50;101443.31;;;15.44;89.83
48404;BME280;34202;52.536;6.042;2023-07-13T04:22:51;101450.17;;;15.42;90.13
48404;BME280;34202;52.536;6.042;2023-07-13T04:27:52;101457.36;;;15.42;90.26
48404;BME280;34202;52.536;6.042;2023-07-13T04:32:53;101459.63;;;15.42;90.72
48404;BME280;34202;52.536;6.042;2023-07-13T04:37:53;101460.68;;;15.43;90.84
48404;BME280;34202;52.536;6.042;2023-07-13T04:42:53;101456.98;;;15.44;91.07
48404;BME280;34202;52.536;6.042;2023-07-13T04:47:54;101463.67;;;15.45;91.23
48404;BME280;34202;52.536;6.042;2023-07-13T04:52:54;101462.94;;;15.47;91.45
48404;BME280;34202;52.536;6.042;2023-07-13T04:57:55;101464.35;;;15.48;91.75
48404;BME280;34202;52.536;6.042;2023-07-13T05:02:56;101468.20;;;15.51;91.94
48404;BME280;34202;52.536;6.042;2023-07-13T05:07:57;101471.69;;;15.54;92.18
48404;BME280;34202;52.536;6.042;2023-07-13T05:12:58;101473.61;;;15.58;92.58
48404;BME280;34202;52.536;6.042;2023-07-13T05:17:58;101477.27;;;15.61;92.88
48404;BME280;34202;52.536;6.042;2023-07-13T05:22:58;101478.67;;;15.65;93.18
48404;BME280;34202;52.536;6.042;2023-07-13T05:27:59;101488.12;;;15.71;93.34
48404;BME280;34202;52.536;6.042;2023-07-13T05:32:59;101497.25;;;15.77;93.68
48404;BME280;34202;52.536;6.042;2023-07-13T05:37:59;101497.75;;;15.82;94.08
48404;BME280;34202;52.536;6.042;2023-07-13T05:42:59;101500.88;;;15.90;94.38
48404;BME280;34202;52.536;6.042;2023-07-13T05:48:00;101505.56;;;16.01;94.96
48404;BME280;34202;52.536;6.042;2023-07-13T05:53:00;101512.48;;;16.19;95.56
48404;BME280;34202;52.536;6.042;2023-07-13T05:58:01;101518.00;;;16.37;95.90
48404;BME280;34202;52.536;6.042;2023-07-13T06:03:02;101518.59;;;16.54;95.93
48404;BME280;34202;52.536;6.042;2023-07-13T06:08:02;101520.94;;;16.68;95.81
48404;BME280;34202;52.536;6.042;2023-07-13T06:13:03;101525.08;;;16.81;95.58
48404;BME280;34202;52.536;6.042;2023-07-13T06:18:03;101529.23;;;16.90;95.51
48404;BME280;34202;52.536;6.042;2023-07-13T06:23:03;101529.31;;;17.00;95.34
48404;BME280;34202;52.536;6.042;2023-07-13T06:28:04;101532.05;;;17.10;95.36
48404;BME280;34202;52.536;6.042;2023-07-13T06:33:04;101532.65;;;17.20;95.33
48404;BME280;34202;52.536;6.042;2023-07-13T06:38:05;101539.77;;;17.28;95.42
48404;BME280;34202;52.536;6.042;2023-07-13T06:43:05;101543.70;;;17.40;95.54
48404;BME280;34202;52.536;6.042;2023-07-13T06:48:06;101547.80;;;17.52;95.55
48404;BME280;34202;52.536;6.042;2023-07-13T06:53:06;101545.89;;;17.66;95.63
48404;BME280;34202;52.536;6.042;2023-07-13T06:58:07;101547.83;;;17.81;95.67
48404;BME280;34202;52.536;6.042;2023-07-13T07:03:07;101551.73;;;17.95;95.53
48404;BME280;34202;52.536;6.042;2023-07-13T07:08:07;101552.56;;;18.13;95.77
48404;BME280;34202;52.536;6.042;2023-07-13T07:13:08;101559.91;;;18.30;95.40
48404;BME280;34202;52.536;6.042;2023-07-13T07:18:08;101558.80;;;18.46;94.82
48404;BME280;34202;52.536;6.042;2023-07-13T07:23:09;101558.91;;;18.63;94.62
48404;BME280;34202;52.536;6.042;2023-07-13T07:28:09;101555.64;;;18.81;94.09
48404;BME280;34202;52.536;6.042;2023-07-13T07:33:11;101554.75;;;18.94;93.16
48404;BME280;34202;52.536;6.042;2023-07-13T07:38:11;101557.33;;;19.07;92.80
48404;BME280;34202;52.536;6.042;2023-07-13T07:43:12;101550.63;;;19.27;92.78
48404;BME280;34202;52.536;6.042;2023-07-13T07:48:13;101548.98;;;19.49;92.27
48404;BME280;34202;52.536;6.042;2023-07-13T07:53:13;101547.98;;;19.75;91.50
48404;BME280;34202;52.536;6.042;2023-07-13T07:58:14;101549.30;;;19.97;90.29
48404;BME280;34202;52.536;6.042;2023-07-13T08:03:14;101555.61;;;20.08;88.53
48404;BME280;34202;52.536;6.042;2023-07-13T08:08:14;101566.31;;;20.27;88.17
48404;BME280;34202;52.536;6.042;2023-07-13T08:13:15;101566.12;;;20.52;87.59
48404;BME280;34202;52.536;6.042;2023-07-13T08:18:15;101549.97;;;20.70;85.65
48404;BME280;34202;52.536;6.042;2023-07-13T08:23:16;101567.48;;;20.70;83.71
48404;BME280;34202;52.536;6.042;2023-07-13T08:28:16;101575.61;;;20.62;82.02
48404;BME280;34202;52.536;6.042;2023-07-13T08:33:21;101570.97;;;20.48;81.52
48404;BME280;34202;52.536;6.042;2023-07-13T08:38:24;101584.52;;;20.27;81.06
48404;BME280;34202;52.536;6.042;2023-07-13T08:43:35;101591.27;;;20.00;81.23
48404;BME280;34202;52.536;6.042;2023-07-13T08:48:49;101591.37;;;19.78;81.45
48404;BME280;34202;52.536;6.042;2023-07-13T08:53:54;101581.40;;;19.62;82.08
48404;BME280;34202;52.536;6.042;2023-07-13T08:59:00;101591.19;;;19.58;83.07
48404;BME280;34202;52.536;6.042;2023-07-13T09:09:19;101617.45;;;19.51;84.42
48404;BME280;34202;52.536;6.042;2023-07-13T09:14:42;101612.50;;;19.50;84.37
48404;BME280;34202;52.536;6.042;2023-07-13T09:19:46;101614.23;;;19.53;84.06
48404;BME280;34202;52.536;6.042;2023-07-13T09:25:23;101616.51;;;19.54;83.79
48404;BME280;34202;52.536;6.042;2023-07-13T09:30:34;101611.33;;;19.58;84.18
48404;BME280;34202;52.536;6.042;2023-07-13T09:35:36;101610.65;;;19.66;84.68
48404;BME280;34202;52.536;6.042;2023-07-13T09:46:20;101602.85;;;19.86;84.53
48404;BME280;34202;52.536;6.042;2023-07-13T09:51:22;101607.86;;;20.10;85.74
48404;BME280;34202;52.536;6.042;2023-07-13T09:56:29;101611.98;;;20.33;84.81
48404;BME280;34202;52.536;6.042;2023-07-13T10:01:35;101621.02;;;20.48;83.99
48404;BME280;34202;52.536;6.042;2023-07-13T10:06:36;101641.21;;;20.54;82.79
48404;BME280;34202;52.536;6.042;2023-07-13T10:11:39;101670.30;;;20.32;80.75
48404;BME280;34202;52.536;6.042;2023-07-13T10:16:42;101670.20;;;19.74;78.96
48404;BME280;34202;52.536;6.042;2023-07-13T10:21:55;101665.42;;;19.32;79.73
48404;BME280;34202;52.536;6.042;2023-07-13T10:32:15;101667.06;;;19.07;83.02
48404;BME280;34202;52.536;6.042;2023-07-13T10:37:20;101669.08;;;19.02;84.19
48404;BME280;34202;52.536;6.042;2023-07-13T10:42:40;101669.02;;;19.06;86.06
48404;BME280;34202;52.536;6.042;2023-07-13T10:47:43;101664.58;;;19.19;88.02
48404;BME280;34202;52.536;6.042;2023-07-13T10:52:49;101671.02;;;19.36;89.68
48404;BME280;34202;52.536;6.042;2023-07-13T10:57:51;101669.23;;;19.58;91.06
48404;BME280;34202;52.536;6.042;2023-07-13T11:02:59;101663.60;;;19.88;92.62
48404;BME280;34202;52.536;6.042;2023-07-13T11:08:19;101673.52;;;20.13;92.12
48404;BME280;34202;52.536;6.042;2023-07-13T11:18:53;101677.76;;;20.32;89.50
48404;BME280;34202;52.536;6.042;2023-07-13T11:24:15;101679.73;;;20.39;88.83
48404;BME280;34202;52.536;6.042;2023-07-13T11:29:33;101670.19;;;20.55;89.08
48404;BME280;34202;52.536;6.042;2023-07-13T11:34:38;101667.69;;;20.81;90.32
48404;BME280;34202;52.536;6.042;2023-07-13T11:39:42;101670.23;;;21.16;90.84
48404;BME280;34202;52.536;6.042;2023-07-13T11:44:47;101670.60;;;21.53;90.23
48404;BME280;34202;52.536;6.042;2023-07-13T11:49:53;101667.79;;;21.92;89.28
48404;BME280;34202;52.536;6.042;2023-07-13T11:54:56;101672.48;;;22.14;86.33
48404;BME280;34202;52.536;6.042;2023-07-13T11:59:58;101679.43;;;22.33;83.22
48404;BME280;34202;52.536;6.042;2023-07-13T12:05:00;101678.03;;;22.56;81.78
48404;BME280;34202;52.536;6.042;2023-07-13T12:15:11;101669.39;;;23.23;78.89
48404;BME280;34202;52.536;6.042;2023-07-13T12:20:24;101673.02;;;23.43;76.16
48404;BME280;34202;52.536;6.042;2023-07-13T12:25:25;101674.63;;;23.58;73.75
48404;BME280;34202;52.536;6.042;2023-07-13T12:30:32;101682.97;;;23.73;72.07
48404;BME280;34202;52.536;6.042;2023-07-13T12:35:46;101682.39;;;23.85;70.47
48404;BME280;34202;52.536;6.042;2023-07-13T12:40:52;101682.64;;;23.78;67.91
48404;BME280;34202;52.536;6.042;2023-07-13T12:46:05;101684.52;;;23.74;66.68
48404;BME280;34202;52.536;6.042;2023-07-13T12:51:15;101685.92;;;23.76;66.38
48404;BME280;34202;52.536;6.042;2023-07-13T12:56:20;101693.96;;;23.69;64.45
48404;BME280;34202;52.536;6.042;2023-07-13T13:01:27;101692.98;;;23.61;63.48
48404;BME280;34202;52.536;6.042;2023-07-13T13:06:29;101696.70;;;23.67;64.42
48404;BME280;34202;52.536;6.042;2023-07-13T13:11:31;101711.33;;;23.76;63.72
48404;BME280;34202;52.536;6.042;2023-07-13T13:16:34;101710.05;;;23.93;63.31
48404;BME280;34202;52.536;6.042;2023-07-13T13:21:35;101710.88;;;24.14;62.53
48404;BME280;34202;52.536;6.042;2023-07-13T13:26:35;101714.27;;;24.24;61.80
48404;BME280;34202;52.536;6.042;2023-07-13T13:31:36;101719.16;;;24.26;60.78
48404;BME280;34202;52.536;6.042;2023-07-13T13:36:36;101719.39;;;24.34;60.04
48404;BME280;34202;52.536;6.042;2023-07-13T13:41:37;101725.55;;;24.41;59.62
48404;BME280;34202;52.536;6.042;2023-07-13T13:46:38;101731.33;;;24.54;59.71
48404;BME280;34202;52.536;6.042;2023-07-13T13:51:38;101731.63;;;24.65;58.47
48404;BME280;34202;52.536;6.042;2023-07-13T13:56:38;101731.59;;;24.66;57.55
48404;BME280;34202;52.536;6.042;2023-07-13T14:01:39;101733.79;;;24.74;57.67
48404;BME280;34202;52.536;6.042;2023-07-13T14:06:40;101734.59;;;24.85;57.90
48404;BME280;34202;52.536;6.042;2023-07-13T14:11:42;101738.61;;;24.87;56.49
48404;BME280;34202;52.536;6.042;2023-07-13T14:16:43;101736.00;;;24.81;56.00
48404;BME280;34202;52.536;6.042;2023-07-13T14:21:44;101738.30;;;24.77;55.84
48404;BME280;34202;52.536;6.042;2023-07-13T14:26:45;101740.52;;;24.69;55.23
48404;BME280;34202;52.536;6.042;2023-07-13T14:31:46;101738.07;;;24.64;55.69
48404;BME280;34202;52.536;6.042;2023-07-13T14:36:48;101739.12;;;24.69;56.16
48404;BME280;34202;52.536;6.042;2023-07-13T14:41:52;101741.78;;;24.69;55.23
48404;BME280;34202;52.536;6.042;2023-07-13T14:46:53;101742.16;;;24.54;54.69
48404;BME280;34202;52.536;6.042;2023-07-13T14:51:55;101736.64;;;24.40;55.05
48404;BME280;34202;52.536;6.042;2023-07-13T14:56:57;101740.27;;;24.47;56.12
48404;BME280;34202;52.536;6.042;2023-07-13T15:01:58;101734.89;;;24.63;56.02
48404;BME280;34202;52.536;6.042;2023-07-13T15:07:01;101740.35;;;24.74;55.93
48404;BME280;34202;52.536;6.042;2023-07-13T15:12:02;101739.70;;;24.77;55.60
48404;BME280;34202;52.536;6.042;2023-07-13T15:17:31;101742.96;;;24.76;54.69
48404;BME280;34202;52.536;6.042;2023-07-13T15:22:36;101745.05;;;24.72;54.85
48404;BME280;34202;52.536;6.042;2023-07-13T15:27:37;101742.90;;;24.63;54.73
48404;BME280;34202;52.536;6.042;2023-07-13T15:32:38;101740.41;;;24.48;54.42
48404;BME280;34202;52.536;6.042;2023-07-13T15:37:39;101740.55;;;24.39;54.80
48404;BME280;34202;52.536;6.042;2023-07-13T15:42:41;101744.45;;;24.34;54.70
48404;BME280;34202;52.536;6.042;2023-07-13T15:47:42;101742.78;;;24.22;54.56
48404;BME280;34202;52.536;6.042;2023-07-13T15:52:47;101746.11;;;24.19;54.97
48404;BME280;34202;52.536;6.042;2023-07-13T15:57:50;101749.77;;;24.16;54.61
48404;BME280;34202;52.536;6.042;2023-07-13T16:02:52;101754.01;;;24.07;54.48
48404;BME280;34202;52.536;6.042;2023-07-13T16:07:53;101753.76;;;23.94;54.49
48404;BME280;34202;52.536;6.042;2023-07-13T16:12:53;101756.30;;;23.76;54.78
48404;BME280;34202;52.536;6.042;2023-07-13T16:17:55;101751.25;;;23.67;55.65
48404;BME280;34202;52.536;6.042;2023-07-13T16:22:56;101751.14;;;23.65;56.20
48404;BME280;34202;52.536;6.042;2023-07-13T16:27:57;101751.12;;;23.66;56.71
48404;BME280;34202;52.536;6.042;2023-07-13T16:33:01;101749.88;;;23.65;56.30
48404;BME280;34202;52.536;6.042;2023-07-13T16:38:14;101756.80;;;23.60;55.95
48404;BME280;34202;52.536;6.042;2023-07-13T16:43:16;101754.67;;;23.55;55.91
48404;BME280;34202;52.536;6.042;2023-07-13T16:48:22;101750.98;;;23.53;56.02
48404;BME280;34202;52.536;6.042;2023-07-13T16:53:26;101751.71;;;23.47;55.87
48404;BME280;34202;52.536;6.042;2023-07-13T16:58:29;101753.97;;;23.38;55.67
48404;BME280;34202;52.536;6.042;2023-07-13T17:03:31;101756.76;;;23.29;55.83
48404;BME280;34202;52.536;6.042;2023-07-13T17:08:33;101763.43;;;23.20;55.92
48404;BME280;34202;52.536;6.042;2023-07-13T17:13:33;101767.51;;;23.14;56.53
48404;BME280;34202;52.536;6.042;2023-07-13T17:18:33;101767.91;;;23.07;56.52
48404;BME280;34202;52.536;6.042;2023-07-13T17:23:36;101768.45;;;22.94;56.53
48404;BME280;34202;52.536;6.042;2023-07-13T17:28:37;101768.13;;;22.87;56.98
48404;BME280;34202;52.536;6.042;2023-07-13T17:33:39;101770.31;;;22.79;56.70
48404;BME280;34202;52.536;6.042;2023-07-13T17:38:43;101765.52;;;22.67;56.75
48404;BME280;34202;52.536;6.042;2023-07-13T17:43:45;101769.95;;;22.55;56.63
48404;BME280;34202;52.536;6.042;2023-07-13T17:48:48;101772.55;;;22.38;56.88
48404;BME280;34202;52.536;6.042;2023-07-13T17:53:50;101773.59;;;22.26;57.54
48404;BME280;34202;52.536;6.042;2023-07-13T17:58:51;101779.98;;;22.17;57.85
48404;BME280;34202;52.536;6.042;2023-07-13T18:03:52;101780.65;;;22.06;58.39
48404;BME280;34202;52.536;6.042;2023-07-13T18:08:59;101783.50;;;21.99;58.89
48404;BME280;34202;52.536;6.042;2023-07-13T18:14:00;101786.44;;;21.88;59.26
48404;BME280;34202;52.536;6.042;2023-07-13T18:19:02;101786.58;;;21.76;59.58
48404;BME280;34202;52.536;6.042;2023-07-13T18:24:04;101790.16;;;21.59;59.93
48404;BME280;34202;52.536;6.042;2023-07-13T18:29:05;101789.69;;;21.49;60.73
48404;BME280;34202;52.536;6.042;2023-07-13T18:34:05;101797.42;;;21.44;61.31
48404;BME280;34202;52.536;6.042;2023-07-13T18:39:12;101796.25;;;21.40;61.71
48404;BME280;34202;52.536;6.042;2023-07-13T18:44:14;101801.47;;;21.36;62.18
48404;BME280;34202;52.536;6.042;2023-07-13T18:49:14;101804.16;;;21.27;62.54
48404;BME280;34202;52.536;6.042;2023-07-13T18:54:14;101806.64;;;21.19;62.95
48404;BME280;34202;52.536;6.042;2023-07-13T18:59:15;101811.63;;;21.10;63.26
48404;BME280;34202;52.536;6.042;2023-07-13T19:04:30;101813.02;;;21.02;63.74
48404;BME280;34202;52.536;6.042;2023-07-13T19:09:31;101811.65;;;20.92;64.11
48404;BME280;34202;52.536;6.042;2023-07-13T19:14:31;101811.10;;;20.85;64.45
48404;BME280;34202;52.536;6.042;2023-07-13T19:19:32;101815.13;;;20.78;64.68
48404;BME280;34202;52.536;6.042;2023-07-13T19:24:32;101821.11;;;20.71;64.72
48404;BME280;34202;52.536;6.042;2023-07-13T19:29:33;101827.28;;;20.62;65.01
48404;BME280;34202;52.536;6.042;2023-07-13T19:34:36;101822.82;;;20.54;65.28
48404;BME280;34202;52.536;6.042;2023-07-13T19:39:38;101827.05;;;20.45;65.67
48404;BME280;34202;52.536;6.042;2023-07-13T19:44:39;101830.88;;;20.39;66.03
48404;BME280;34202;52.536;6.042;2023-07-13T19:49:41;101833.86;;;20.30;66.54
48404;BME280;34202;52.536;6.042;2023-07-13T19:54:44;101839.82;;;20.23;67.23
48404;BME280;34202;52.536;6.042;2023-07-13T19:59:45;101842.58;;;20.17;67.29
48404;BME280;34202;52.536;6.042;2023-07-13T20:04:49;101848.06;;;20.06;67.57
48404;BME280;34202;52.536;6.042;2023-07-13T20:09:51;101852.16;;;19.94;68.04
48404;BME280;34202;52.536;6.042;2023-07-13T20:14:53;101856.55;;;19.84;68.38
48404;BME280;34202;52.536;6.042;2023-07-13T20:19:55;101856.71;;;19.74;68.80
48404;BME280;34202;52.536;6.042;2023-07-13T20:24:55;101864.90;;;19.67;69.40
48404;BME280;34202;52.536;6.042;2023-07-13T20:29:56;101856.88;;;19.61;69.97
48404;BME280;34202;52.536;6.042;2023-07-13T20:34:57;101855.55;;;19.55;70.41
48404;BME280;34202;52.536;6.042;2023-07-13T20:39:59;101858.63;;;19.49;70.87
48404;BME280;34202;52.536;6.042;2023-07-13T20:44:59;101858.55;;;19.43;71.20
48404;BME280;34202;52.536;6.042;2023-07-13T20:49:59;101859.53;;;19.36;71.66
48404;BME280;34202;52.536;6.042;2023-07-13T20:55:00;101855.58;;;19.28;72.12
48404;BME280;34202;52.536;6.042;2023-07-13T21:00:01;101860.06;;;19.21;72.52
48404;BME280;34202;52.536;6.042;2023-07-13T21:05:19;101860.35;;;19.12;72.85
48404;BME280;34202;52.536;6.042;2023-07-13T21:10:23;101851.28;;;19.05;73.12
48404;BME280;34202;52.536;6.042;2023-07-13T21:15:27;101858.59;;;18.98;73.44
48404;BME280;34202;52.536;6.042;2023-07-13T21:20:36;101855.16;;;18.91;73.72
48404;BME280;34202;52.536;6.042;2023-07-13T21:25:37;101851.53;;;18.83;73.94
48404;BME280;34202;52.536;6.042;2023-07-13T21:30:39;101852.83;;;18.75;74.37
48404;BME280;34202;52.536;6.042;2023-07-13T21:35:41;101855.02;;;18.67;74.72
48404;BME280;34202;52.536;6.042;2023-07-13T21:40:44;101847.90;;;18.59;75.35
48404;BME280;34202;52.536;6.042;2023-07-13T21:45:46;101851.66;;;18.52;75.57
48404;BME280;34202;52.536;6.042;2023-07-13T21:50:53;101846.81;;;18.44;75.96
48404;BME280;34202;52.536;6.042;2023-07-13T21:55:56;101849.01;;;18.36;76.19
48404;BME280;34202;52.536;6.042;2023-07-13T22:00:57;101845.38;;;18.28;76.47
48404;BME280;34202;52.536;6.042;2023-07-13T22:05:58;101848.80;;;18.21;76.89
48404;BME280;34202;52.536;6.042;2023-07-13T22:11:08;101849.75;;;18.12;77.15
48404;BME280;34202;52.536;6.042;2023-07-13T22:16:14;101852.64;;;18.03;77.50
48404;BME280;34202;52.536;6.042;2023-07-13T22:21:17;101851.65;;;17.94;77.68
48404;BME280;34202;52.536;6.042;2023-07-13T22:26:27;101854.88;;;17.86;78.08
48404;BME280;34202;52.536;6.042;2023-07-13T22:31:28;101855.98;;;17.77;78.48
48404;BME280;34202;52.536;6.042;2023-07-13T22:36:28;101852.52;;;17.69;78.80
48404;BME280;34202;52.536;6.042;2023-07-13T22:41:29;101852.04;;;17.61;79.07
48404;BME280;34202;52.536;6.042;2023-07-13T22:46:31;101851.89;;;17.56;79.37
48404;BME280;34202;52.536;6.042;2023-07-13T22:51:32;101852.45;;;17.50;79.65
48404;BME280;34202;52.536;6.042;2023-07-13T22:56:32;101847.38;;;17.44;79.68
48404;BME280;34202;52.536;6.042;2023-07-13T23:01:35;101843.90;;;17.38;80.17
48404;BME280;34202;52.536;6.042;2023-07-13T23:06:37;101844.98;;;17.31;80.24
48404;BME280;34202;52.536;6.042;2023-07-13T23:11:37;101839.21;;;17.24;80.34
48404;BME280;34202;52.536;6.042;2023-07-13T23:16:38;101833.98;;;17.17;80.60
48404;BME280;34202;52.536;6.042;2023-07-13T23:21:39;101833.46;;;17.12;80.66
48404;BME280;34202;52.536;6.042;2023-07-13T23:26:39;101835.96;;;17.07;80.88
48404;BME280;34202;52.536;6.042;2023-07-13T23:31:39;101836.86;;;17.01;81.00
48404;BME280;34202;52.536;6.042;2023-07-13T23:36:40;101834.07;;;16.96;80.96
48404;BME280;34202;52.536;6.042;2023-07-13T23:41:41;101835.34;;;16.87;81.00
48404;BME280;34202;52.536;6.042;2023-07-13T23:46:45;101835.16;;;16.80;81.12
48404;BME280;34202;52.536;6.042;2023-07-13T23:51:52;101834.82;;;16.74;81.28
48404;BME280;34202;52.536;6.042;2023-07-13T23:56:55;101830.80;;;16.68;81.60
